sensor_id;sensor_type;location;lat;lon;timestamp;P1;durP1;ratioP1;P2;durP2;ratioP2
9108;SDS011;4590;51.462;6.692;2022-12-07T00:01:25;12.80;;;8.18;;
9108;SDS011;4590;51.462;6.692;2022-12-07T00:03:52;11.52;;;8.27;;
9108;SDS011;4590;51.462;6.692;2022-12-07T00:06:21;10.35;;;7.82;;
9108;SDS011;4590;51.462;6.692;2022-12-07T00:08:47;14.00;;;8.50;;
9108;SDS011;4590;51.462;6.692;2022-12-07T00:11:14;11.77;;;8.33;;
9108;SDS011;4590;51.462;6.692;2022-12-07T00:13:42;9.52;;;7.20;;
9108;SDS011;4590;51.462;6.692;2022-12-07T00:16:12;10.25;;;7.80;;
9108;SDS011;4590;51.462;6.692;2022-12-07T00:18:39;13.10;;;9.02;;
9108;SDS011;4590;51.462;6.692;2022-12-07T00:21:06;11.55;;;8.52;;
9108;SDS011;4590;51.462;6.692;2022-12-07T00:23:34;10.13;;;7.70;;
9108;SDS011;4590;51.462;6.692;2022-12-07T00:26:03;12.60;;;8.70;;
9108;SDS011;4590;51.462;6.692;2022-12-07T00:28:32;11.25;;;7.82;;
9108;SDS011;4590;51.462;6.692;2022-12-07T00:31:02;10.98;;;8.27;;
9108;SDS011;4590;51.462;6.692;2022-12-07T00:33:30;10.90;;;8.07;;
9108;SDS011;4590;51.462;6.692;2022-12-07T00:35:56;13.07;;;8.55;;
9108;SDS011;4590;51.462;6.692;2022-12-07T00:38:22;12.55;;;8.75;;
9108;SDS011;4590;51.462;6.692;2022-12-07T00:40:58;10.30;;;7.97;;
9108;SDS011;4590;51.462;6.692;2022-12-07T00:43:24;10.73;;;7.95;;
9108;SDS011;4590;51.462;6.692;2022-12-07T00:45:50;13.40;;;8.13;;
9108;SDS011;4590;51.462;6.692;2022-12-07T00:48:16;11.40;;;9.10;;
9108;SDS011;4590;51.462;6.692;2022-12-07T00:50:42;12.67;;;8.60;;
9108;SDS011;4590;51.462;6.692;2022-12-07T00:53:07;11.73;;;8.67;;
9108;SDS011;4590;51.462;6.692;2022-12-07T00:55:33;13.00;;;8.93;;
9108;SDS011;4590;51.462;6.692;2022-12-07T00:57:59;12.75;;;8.95;;
9108;SDS011;4590;51.462;6.692;2022-12-07T01:00:24;12.80;;;9.10;;
9108;SDS011;4590;51.462;6.692;2022-12-07T01:02:49;13.27;;;8.80;;
9108;SDS011;4590;51.462;6.692;2022-12-07T01:05:15;11.57;;;8.10;;
9108;SDS011;4590;51.462;6.692;2022-12-07T01:07:40;13.40;;;9.17;;
9108;SDS011;4590;51.462;6.692;2022-12-07T01:10:05;12.17;;;8.83;;
9108;SDS011;4590;51.462;6.692;2022-12-07T01:12:31;10.85;;;8.73;;
9108;SDS011;4590;51.462;6.692;2022-12-07T01:14:57;14.03;;;9.10;;
9108;SDS011;4590;51.462;6.692;2022-12-07T01:17:22;14.70;;;7.87;;
9108;SDS011;4590;51.462;6.692;2022-12-07T01:19:47;10.83;;;8.10;;
9108;SDS011;4590;51.462;6.692;2022-12-07T01:22:12;9.67;;;7.63;;
9108;SDS011;4590;51.462;6.692;2022-12-07T01:24:38;12.00;;;8.00;;
9108;SDS011;4590;51.462;6.692;2022-12-07T01:27:03;11.80;;;8.20;;
9108;SDS011;4590;51.462;6.692;2022-12-07T01:29:28;10.13;;;7.80;;
9108;SDS011;4590;51.462;6.692;2022-12-07T01:31:53;11.77;;;8.43;;
9108;SDS011;4590;51.462;6.692;2022-12-07T01:34:19;13.17;;;8.10;;
9108;SDS011;4590;51.462;6.692;2022-12-07T01:36:44;13.13;;;8.13;;
9108;SDS011;4590;51.462;6.692;2022-12-07T01:39:09;11.43;;;7.87;;
9108;SDS011;4590;51.462;6.692;2022-12-07T01:41:36;11.87;;;8.27;;
9108;SDS011;4590;51.462;6.692;2022-12-07T01:44:14;10.13;;;7.78;;
9108;SDS011;4590;51.462;6.692;2022-12-07T01:46:46;14.35;;;7.75;;
9108;SDS011;4590;51.462;6.692;2022-12-07T01:49:18;10.52;;;7.50;;
9108;SDS011;4590;51.462;6.692;2022-12-07T01:52:12;10.77;;;7.43;;
9108;SDS011;4590;51.462;6.692;2022-12-07T01:54:42;10.32;;;7.78;;
9108;SDS011;4590;51.462;6.692;2022-12-07T01:57:09;10.90;;;7.50;;
9108;SDS011;4590;51.462;6.692;2022-12-07T01:59:36;11.55;;;7.88;;
9108;SDS011;4590;51.462;6.692;2022-12-07T02:02:02;11.15;;;8.38;;
9108;SDS011;4590;51.462;6.692;2022-12-07T02:04:32;12.18;;;8.80;;
9108;SDS011;4590;51.462;6.692;2022-12-07T02:06:58;9.48;;;7.20;;
9108;SDS011;4590;51.462;6.692;2022-12-07T02:09:24;10.52;;;7.38;;
9108;SDS011;4590;51.462;6.692;2022-12-07T02:11:49;11.23;;;8.00;;
9108;SDS011;4590;51.462;6.692;2022-12-07T02:14:16;13.15;;;8.60;;
9108;SDS011;4590;51.462;6.692;2022-12-07T02:16:44;14.03;;;8.27;;
9108;SDS011;4590;51.462;6.692;2022-12-07T02:28:05;10.82;;;8.38;;
9108;SDS011;4590;51.462;6.692;2022-12-07T02:30:52;12.77;;;8.05;;
9108;SDS011;4590;51.462;6.692;2022-12-07T02:33:26;14.30;;;8.20;;
9108;SDS011;4590;51.462;6.692;2022-12-07T02:36:00;12.23;;;8.40;;
9108;SDS011;4590;51.462;6.692;2022-12-07T02:38:44;11.90;;;8.23;;
9108;SDS011;4590;51.462;6.692;2022-12-07T02:41:18;13.43;;;8.57;;
9108;SDS011;4590;51.462;6.692;2022-12-07T02:43:53;13.52;;;9.27;;
9108;SDS011;4590;51.462;6.692;2022-12-07T02:46:27;14.15;;;8.45;;
9108;SDS011;4590;51.462;6.692;2022-12-07T02:48:56;12.57;;;8.25;;
9108;SDS011;4590;51.462;6.692;2022-12-07T02:51:24;13.88;;;8.48;;
9108;SDS011;4590;51.462;6.692;2022-12-07T02:53:49;12.20;;;8.37;;
9108;SDS011;4590;51.462;6.692;2022-12-07T02:56:21;13.30;;;8.73;;
9108;SDS011;4590;51.462;6.692;2022-12-07T03:01:55;10.65;;;7.75;;
9108;SDS011;4590;51.462;6.692;2022-12-07T03:07:26;12.20;;;8.57;;
9108;SDS011;4590;51.462;6.692;2022-12-07T03:12:28;12.70;;;8.07;;
9108;SDS011;4590;51.462;6.692;2022-12-07T03:15:05;12.15;;;7.95;;
9108;SDS011;4590;51.462;6.692;2022-12-07T03:17:38;12.38;;;7.93;;
9108;SDS011;4590;51.462;6.692;2022-12-07T03:20:06;12.77;;;7.90;;
9108;SDS011;4590;51.462;6.692;2022-12-07T03:22:34;13.35;;;8.95;;
9108;SDS011;4590;51.462;6.692;2022-12-07T03:25:04;14.38;;;7.72;;
9108;SDS011;4590;51.462;6.692;2022-12-07T03:27:41;11.80;;;9.00;;
9108;SDS011;4590;51.462;6.692;2022-12-07T03:30:16;12.60;;;8.50;;
9108;SDS011;4590;51.462;6.692;2022-12-07T03:35:31;11.43;;;8.25;;
9108;SDS011;4590;51.462;6.692;2022-12-07T03:38:12;12.90;;;8.50;;
9108;SDS011;4590;51.462;6.692;2022-12-07T03:40:59;13.73;;;8.45;;
9108;SDS011;4590;51.462;6.692;2022-12-07T03:43:28;13.13;;;8.35;;
9108;SDS011;4590;51.462;6.692;2022-12-07T03:45:58;13.63;;;8.50;;
9108;SDS011;4590;51.462;6.692;2022-12-07T03:48:36;13.45;;;8.63;;
9108;SDS011;4590;51.462;6.692;2022-12-07T03:51:14;13.57;;;9.23;;
9108;SDS011;4590;51.462;6.692;2022-12-07T03:53:48;11.93;;;8.55;;
9108;SDS011;4590;51.462;6.692;2022-12-07T03:56:20;14.65;;;8.57;;
9108;SDS011;4590;51.462;6.692;2022-12-07T03:58:47;15.43;;;8.93;;
9108;SDS011;4590;51.462;6.692;2022-12-07T04:01:13;10.98;;;8.25;;
9108;SDS011;4590;51.462;6.692;2022-12-07T04:03:38;15.47;;;9.87;;
9108;SDS011;4590;51.462;6.692;2022-12-07T04:06:04;14.10;;;8.33;;
9108;SDS011;4590;51.462;6.692;2022-12-07T04:08:29;13.43;;;8.77;;
9108;SDS011;4590;51.462;6.692;2022-12-07T04:10:55;12.37;;;8.63;;
9108;SDS011;4590;51.462;6.692;2022-12-07T04:13:20;13.00;;;8.03;;
9108;SDS011;4590;51.462;6.692;2022-12-07T04:15:45;12.07;;;8.47;;
9108;SDS011;4590;51.462;6.692;2022-12-07T04:18:10;15.50;;;9.27;;
9108;SDS011;4590;51.462;6.692;2022-12-07T04:20:36;15.23;;;8.63;;
9108;SDS011;4590;51.462;6.692;2022-12-07T04:23:01;12.47;;;8.57;;
9108;SDS011;4590;51.462;6.692;2022-12-07T04:25:26;11.27;;;8.27;;
9108;SDS011;4590;51.462;6.692;2022-12-07T04:27:52;12.50;;;8.43;;
9108;SDS011;4590;51.462;6.692;2022-12-07T04:30:17;13.17;;;8.00;;
9108;SDS011;4590;51.462;6.692;2022-12-07T04:32:42;10.87;;;7.63;;
9108;SDS011;4590;51.462;6.692;2022-12-07T04:35:08;11.63;;;8.17;;
9108;SDS011;4590;51.462;6.692;2022-12-07T04:37:33;12.00;;;7.80;;
9108;SDS011;4590;51.462;6.692;2022-12-07T04:39:58;12.27;;;8.27;;
9108;SDS011;4590;51.462;6.692;2022-12-07T04:42:24;13.40;;;7.87;;
9108;SDS011;4590;51.462;6.692;2022-12-07T04:44:49;11.10;;;7.60;;
9108;SDS011;4590;51.462;6.692;2022-12-07T04:47:15;11.23;;;7.70;;
9108;SDS011;4590;51.462;6.692;2022-12-07T04:49:41;10.47;;;7.97;;
9108;SDS011;4590;51.462;6.692;2022-12-07T04:52:06;12.97;;;8.07;;
9108;SDS011;4590;51.462;6.692;2022-12-07T04:54:31;10.07;;;7.40;;
9108;SDS011;4590;51.462;6.692;2022-12-07T04:56:56;12.37;;;7.90;;
9108;SDS011;4590;51.462;6.692;2022-12-07T04:59:22;15.70;;;9.00;;
9108;SDS011;4590;51.462;6.692;2022-12-07T05:01:47;13.07;;;7.87;;
9108;SDS011;4590;51.462;6.692;2022-12-07T05:04:12;13.93;;;8.43;;
9108;SDS011;4590;51.462;6.692;2022-12-07T05:06:38;14.48;;;8.57;;
9108;SDS011;4590;51.462;6.692;2022-12-07T05:09:03;11.77;;;7.60;;
9108;SDS011;4590;51.462;6.692;2022-12-07T05:11:29;15.18;;;8.27;;
9108;SDS011;4590;51.462;6.692;2022-12-07T05:14:14;13.70;;;8.13;;
9108;SDS011;4590;51.462;6.692;2022-12-07T05:16:40;12.75;;;7.38;;
9108;SDS011;4590;51.462;6.692;2022-12-07T05:19:06;18.65;;;8.05;;
9108;SDS011;4590;51.462;6.692;2022-12-07T05:21:32;11.90;;;6.68;;
9108;SDS011;4590;51.462;6.692;2022-12-07T05:23:57;12.13;;;7.10;;
9108;SDS011;4590;51.462;6.692;2022-12-07T05:26:23;10.90;;;7.07;;
9108;SDS011;4590;51.462;6.692;2022-12-07T05:28:52;10.53;;;6.93;;
9108;SDS011;4590;51.462;6.692;2022-12-07T10:29:39;7.00;;;3.17;;
9108;SDS011;4590;51.462;6.692;2022-12-07T10:34:39;5.75;;;3.60;;
9108;SDS011;4590;51.462;6.692;2022-12-07T10:39:40;7.40;;;3.00;;
9108;SDS011;4590;51.462;6.692;2022-12-07T10:42:09;7.55;;;2.72;;
9108;SDS011;4590;51.462;6.692;2022-12-07T10:44:41;6.63;;;3.38;;
9108;SDS011;4590;51.462;6.692;2022-12-07T10:52:45;4.43;;;2.47;;
9108;SDS011;4590;51.462;6.692;2022-12-07T11:03:41;5.53;;;2.60;;
9108;SDS011;4590;51.462;6.692;2022-12-07T11:14:37;8.05;;;3.08;;
9108;SDS011;4590;51.462;6.692;2022-12-07T11:17:31;5.78;;;2.85;;
9108;SDS011;4590;51.462;6.692;2022-12-07T11:20:28;4.10;;;2.53;;
9108;SDS011;4590;51.462;6.692;2022-12-07T11:31:16;4.78;;;2.67;;
9108;SDS011;4590;51.462;6.692;2022-12-07T11:33:49;4.70;;;2.78;;
9108;SDS011;4590;51.462;6.692;2022-12-07T11:38:50;9.30;;;2.30;;
9108;SDS011;4590;51.462;6.692;2022-12-07T11:41:37;5.28;;;2.83;;
9108;SDS011;4590;51.462;6.692;2022-12-07T11:44:18;5.70;;;2.65;;
9108;SDS011;4590;51.462;6.692;2022-12-07T11:47:13;5.88;;;2.60;;
9108;SDS011;4590;51.462;6.692;2022-12-07T11:55:14;7.55;;;3.22;;
9108;SDS011;4590;51.462;6.692;2022-12-07T11:57:46;4.85;;;2.53;;
9108;SDS011;4590;51.462;6.692;2022-12-07T12:00:17;5.07;;;2.78;;
9108;SDS011;4590;51.462;6.692;2022-12-07T12:02:51;5.55;;;2.88;;
9108;SDS011;4590;51.462;6.692;2022-12-07T12:05:30;4.57;;;2.58;;
9108;SDS011;4590;51.462;6.692;2022-12-07T12:08:01;7.77;;;2.83;;
9108;SDS011;4590;51.462;6.692;2022-12-07T12:13:16;6.47;;;2.80;;
9108;SDS011;4590;51.462;6.692;2022-12-07T12:16:09;6.30;;;2.40;;
9108;SDS011;4590;51.462;6.692;2022-12-07T12:18:51;8.73;;;2.88;;
9108;SDS011;4590;51.462;6.692;2022-12-07T12:21:28;5.05;;;2.83;;
9108;SDS011;4590;51.462;6.692;2022-12-07T12:23:59;14.73;;;2.65;;
9108;SDS011;4590;51.462;6.692;2022-12-07T12:26:30;6.53;;;2.50;;
9108;SDS011;4590;51.462;6.692;2022-12-07T12:28:59;5.78;;;2.42;;
9108;SDS011;4590;51.462;6.692;2022-12-07T12:31:31;5.32;;;2.30;;
9108;SDS011;4590;51.462;6.692;2022-12-07T12:33:58;7.72;;;2.40;;
9108;SDS011;4590;51.462;6.692;2022-12-07T12:46:59;9.48;;;5.25;;
9108;SDS011;4590;51.462;6.692;2022-12-07T12:49:54;8.63;;;4.30;;
9108;SDS011;4590;51.462;6.692;2022-12-07T12:52:48;5.88;;;2.70;;
9108;SDS011;4590;51.462;6.692;2022-12-07T12:55:17;5.18;;;2.63;;
9108;SDS011;4590;51.462;6.692;2022-12-07T12:57:46;5.90;;;2.72;;
9108;SDS011;4590;51.462;6.692;2022-12-07T13:00:32;5.03;;;2.40;;
9108;SDS011;4590;51.462;6.692;2022-12-07T13:02:58;5.45;;;2.28;;
9108;SDS011;4590;51.462;6.692;2022-12-07T13:07:59;5.28;;;2.90;;
9108;SDS011;4590;51.462;6.692;2022-12-07T13:13:00;6.38;;;2.28;;
9108;SDS011;4590;51.462;6.692;2022-12-07T13:15:32;9.60;;;2.42;;
9108;SDS011;4590;51.462;6.692;2022-12-07T13:20:44;5.22;;;2.35;;
9108;SDS011;4590;51.462;6.692;2022-12-07T13:23:12;6.22;;;2.17;;
9108;SDS011;4590;51.462;6.692;2022-12-07T13:25:49;3.30;;;1.88;;
9108;SDS011;4590;51.462;6.692;2022-12-07T13:28:19;6.70;;;2.05;;
9108;SDS011;4590;51.462;6.692;2022-12-07T13:30:50;4.85;;;2.10;;
9108;SDS011;4590;51.462;6.692;2022-12-07T13:33:24;2.42;;;1.67;;
9108;SDS011;4590;51.462;6.692;2022-12-07T13:35:53;3.20;;;1.67;;
9108;SDS011;4590;51.462;6.692;2022-12-07T13:38:30;5.38;;;1.92;;
9108;SDS011;4590;51.462;6.692;2022-12-07T13:41:05;6.07;;;1.80;;
9108;SDS011;4590;51.462;6.692;2022-12-07T13:43:45;4.40;;;1.85;;
9108;SDS011;4590;51.462;6.692;2022-12-07T13:46:13;7.55;;;2.00;;
9108;SDS011;4590;51.462;6.692;2022-12-07T13:48:46;5.95;;;1.80;;
9108;SDS011;4590;51.462;6.692;2022-12-07T13:51:26;4.65;;;1.88;;
9108;SDS011;4590;51.462;6.692;2022-12-07T13:53:54;8.10;;;2.35;;
9108;SDS011;4590;51.462;6.692;2022-12-07T13:56:26;4.25;;;1.48;;
9108;SDS011;4590;51.462;6.692;2022-12-07T13:58:56;4.88;;;1.65;;
9108;SDS011;4590;51.462;6.692;2022-12-07T14:01:22;5.67;;;1.90;;
9108;SDS011;4590;51.462;6.692;2022-12-07T14:03:48;5.38;;;3.15;;
9108;SDS011;4590;51.462;6.692;2022-12-07T14:06:24;5.87;;;2.70;;
9108;SDS011;4590;51.462;6.692;2022-12-07T14:11:45;9.65;;;5.40;;
9108;SDS011;4590;51.462;6.692;2022-12-07T14:14:31;5.88;;;3.03;;
9108;SDS011;4590;51.462;6.692;2022-12-07T14:16:59;7.30;;;3.78;;
9108;SDS011;4590;51.462;6.692;2022-12-07T14:19:43;8.20;;;5.20;;
9108;SDS011;4590;51.462;6.692;2022-12-07T14:27:57;8.65;;;4.82;;
9108;SDS011;4590;51.462;6.692;2022-12-07T14:30:24;9.10;;;3.80;;
9108;SDS011;4590;51.462;6.692;2022-12-07T14:32:57;7.05;;;3.45;;
9108;SDS011;4590;51.462;6.692;2022-12-07T14:35:25;5.15;;;2.50;;
9108;SDS011;4590;51.462;6.692;2022-12-07T14:37:50;8.83;;;3.80;;
9108;SDS011;4590;51.462;6.692;2022-12-07T14:40:20;7.00;;;4.63;;
9108;SDS011;4590;51.462;6.692;2022-12-07T14:42:49;6.65;;;2.90;;
9108;SDS011;4590;51.462;6.692;2022-12-07T14:45:18;7.28;;;2.78;;
9108;SDS011;4590;51.462;6.692;2022-12-07T14:47:47;4.57;;;2.38;;
9108;SDS011;4590;51.462;6.692;2022-12-07T14:50:13;6.00;;;3.00;;
9108;SDS011;4590;51.462;6.692;2022-12-07T14:52:41;10.25;;;5.00;;
9108;SDS011;4590;51.462;6.692;2022-12-07T14:55:42;10.55;;;4.90;;
9108;SDS011;4590;51.462;6.692;2022-12-07T14:58:00;9.95;;;3.78;;
9108;SDS011;4590;51.462;6.692;2022-12-07T15:00:26;8.90;;;4.40;;
9108;SDS011;4590;51.462;6.692;2022-12-07T15:02:53;10.35;;;4.13;;
9108;SDS011;4590;51.462;6.692;2022-12-07T15:05:18;7.22;;;3.17;;
9108;SDS011;4590;51.462;6.692;2022-12-07T15:07:44;9.23;;;3.20;;
9108;SDS011;4590;51.462;6.692;2022-12-07T15:10:16;5.65;;;2.80;;
9108;SDS011;4590;51.462;6.692;2022-12-07T15:12:46;6.00;;;2.60;;
9108;SDS011;4590;51.462;6.692;2022-12-07T15:15:12;9.07;;;2.40;;
9108;SDS011;4590;51.462;6.692;2022-12-07T15:17:37;5.70;;;2.47;;
9108;SDS011;4590;51.462;6.692;2022-12-07T15:20:03;7.77;;;2.67;;
9108;SDS011;4590;51.462;6.692;2022-12-07T15:22:29;9.38;;;3.40;;
9108;SDS011;4590;51.462;6.692;2022-12-07T15:24:56;7.15;;;3.55;;
9108;SDS011;4590;51.462;6.692;2022-12-07T15:27:21;4.17;;;2.70;;
9108;SDS011;4590;51.462;6.692;2022-12-07T15:29:47;5.87;;;2.87;;
9108;SDS011;4590;51.462;6.692;2022-12-07T15:32:12;5.47;;;2.87;;
9108;SDS011;4590;51.462;6.692;2022-12-07T15:34:37;8.80;;;3.00;;
9108;SDS011;4590;51.462;6.692;2022-12-07T15:37:03;8.17;;;2.70;;
9108;SDS011;4590;51.462;6.692;2022-12-07T15:39:28;9.07;;;2.80;;
9108;SDS011;4590;51.462;6.692;2022-12-07T15:41:53;6.33;;;2.87;;
9108;SDS011;4590;51.462;6.692;2022-12-07T15:44:18;6.77;;;2.80;;
9108;SDS011;4590;51.462;6.692;2022-12-07T15:47:03;6.32;;;3.00;;
9108;SDS011;4590;51.462;6.692;2022-12-07T15:49:29;7.75;;;2.70;;
9108;SDS011;4590;51.462;6.692;2022-12-07T15:51:54;6.87;;;2.83;;
9108;SDS011;4590;51.462;6.692;2022-12-07T15:54:21;5.53;;;2.58;;
9108;SDS011;4590;51.462;6.692;2022-12-07T15:56:51;9.43;;;3.28;;
9108;SDS011;4590;51.462;6.692;2022-12-07T15:59:17;10.60;;;3.45;;
9108;SDS011;4590;51.462;6.692;2022-12-07T16:01:43;9.43;;;4.00;;
9108;SDS011;4590;51.462;6.692;2022-12-07T16:04:08;8.77;;;3.50;;
9108;SDS011;4590;51.462;6.692;2022-12-07T16:06:34;10.10;;;3.33;;
9108;SDS011;4590;51.462;6.692;2022-12-07T16:08:59;7.13;;;3.43;;
9108;SDS011;4590;51.462;6.692;2022-12-07T16:11:25;6.40;;;3.17;;
9108;SDS011;4590;51.462;6.692;2022-12-07T16:13:51;6.75;;;3.10;;
9108;SDS011;4590;51.462;6.692;2022-12-07T16:16:16;6.80;;;3.20;;
9108;SDS011;4590;51.462;6.692;2022-12-07T16:18:44;8.30;;;3.75;;
9108;SDS011;4590;51.462;6.692;2022-12-07T16:21:10;7.07;;;3.80;;
9108;SDS011;4590;51.462;6.692;2022-12-07T16:23:36;12.45;;;3.65;;
9108;SDS011;4590;51.462;6.692;2022-12-07T16:26:06;7.53;;;3.17;;
9108;SDS011;4590;51.462;6.692;2022-12-07T16:28:33;6.65;;;2.90;;
9108;SDS011;4590;51.462;6.692;2022-12-07T16:31:02;5.75;;;3.03;;
9108;SDS011;4590;51.462;6.692;2022-12-07T16:33:35;7.28;;;2.97;;
9108;SDS011;4590;51.462;6.692;2022-12-07T16:36:02;7.35;;;3.20;;
9108;SDS011;4590;51.462;6.692;2022-12-07T16:40:54;4.77;;;2.40;;
9108;SDS011;4590;51.462;6.692;2022-12-07T16:43:22;4.60;;;2.40;;
9108;SDS011;4590;51.462;6.692;2022-12-07T16:45:47;5.03;;;2.30;;
9108;SDS011;4590;51.462;6.692;2022-12-07T16:48:13;5.93;;;2.57;;
9108;SDS011;4590;51.462;6.692;2022-12-07T16:50:40;7.82;;;2.67;;
9108;SDS011;4590;51.462;6.692;2022-12-07T16:55:34;4.85;;;2.33;;
9108;SDS011;4590;51.462;6.692;2022-12-07T16:58:01;4.75;;;2.20;;
9108;SDS011;4590;51.462;6.692;2022-12-07T17:00:26;5.03;;;2.83;;
9108;SDS011;4590;51.462;6.692;2022-12-07T17:02:51;5.37;;;2.47;;
9108;SDS011;4590;51.462;6.692;2022-12-07T17:05:17;4.43;;;1.90;;
9108;SDS011;4590;51.462;6.692;2022-12-07T17:07:43;6.20;;;2.25;;
9108;SDS011;4590;51.462;6.692;2022-12-07T17:10:09;6.20;;;2.13;;
9108;SDS011;4590;51.462;6.692;2022-12-07T17:12:34;6.03;;;2.10;;
9108;SDS011;4590;51.462;6.692;2022-12-07T17:14:59;6.80;;;2.73;;
9108;SDS011;4590;51.462;6.692;2022-12-07T17:17:46;6.07;;;2.28;;
9108;SDS011;4590;51.462;6.692;2022-12-07T17:20:16;3.72;;;1.90;;
9108;SDS011;4590;51.462;6.692;2022-12-07T17:22:42;6.07;;;1.98;;
9108;SDS011;4590;51.462;6.692;2022-12-07T17:25:08;5.75;;;2.05;;
9108;SDS011;4590;51.462;6.692;2022-12-07T17:27:34;5.32;;;1.83;;
9108;SDS011;4590;51.462;6.692;2022-12-07T17:29:59;6.50;;;2.57;;
9108;SDS011;4590;51.462;6.692;2022-12-07T17:32:25;8.93;;;2.20;;
9108;SDS011;4590;51.462;6.692;2022-12-07T17:34:50;3.67;;;2.10;;
9108;SDS011;4590;51.462;6.692;2022-12-07T17:37:16;3.90;;;1.70;;
9108;SDS011;4590;51.462;6.692;2022-12-07T17:39:41;4.68;;;2.42;;
9108;SDS011;4590;51.462;6.692;2022-12-07T17:42:07;4.13;;;2.10;;
9108;SDS011;4590;51.462;6.692;2022-12-07T17:44:52;4.03;;;1.70;;
9108;SDS011;4590;51.462;6.692;2022-12-07T17:47:17;3.97;;;1.80;;
9108;SDS011;4590;51.462;6.692;2022-12-07T17:49:43;4.73;;;2.27;;
9108;SDS011;4590;51.462;6.692;2022-12-07T17:52:10;5.60;;;1.92;;
9108;SDS011;4590;51.462;6.692;2022-12-07T17:54:55;3.50;;;1.83;;
9108;SDS011;4590;51.462;6.692;2022-12-07T17:57:20;3.73;;;2.07;;
9108;SDS011;4590;51.462;6.692;2022-12-07T17:59:45;3.50;;;2.20;;
9108;SDS011;4590;51.462;6.692;2022-12-07T18:02:11;3.80;;;1.90;;
9108;SDS011;4590;51.462;6.692;2022-12-07T18:04:36;5.23;;;2.10;;
9108;SDS011;4590;51.462;6.692;2022-12-07T18:07:04;5.13;;;2.60;;
9108;SDS011;4590;51.462;6.692;2022-12-07T18:09:30;6.20;;;2.97;;
9108;SDS011;4590;51.462;6.692;2022-12-07T18:11:56;7.70;;;2.80;;
9108;SDS011;4590;51.462;6.692;2022-12-07T18:14:21;6.20;;;3.10;;
9108;SDS011;4590;51.462;6.692;2022-12-07T18:16:46;4.73;;;3.00;;
9108;SDS011;4590;51.462;6.692;2022-12-07T18:19:13;6.32;;;3.00;;
9108;SDS011;4590;51.462;6.692;2022-12-07T18:21:39;5.05;;;3.40;;
9108;SDS011;4590;51.462;6.692;2022-12-07T18:24:08;7.97;;;3.60;;
9108;SDS011;4590;51.462;6.692;2022-12-07T18:26:36;5.55;;;3.45;;
9108;SDS011;4590;51.462;6.692;2022-12-07T18:29:01;5.50;;;3.00;;
9108;SDS011;4590;51.462;6.692;2022-12-07T18:31:28;6.95;;;3.95;;
9108;SDS011;4590;51.462;6.692;2022-12-07T18:33:54;6.97;;;3.92;;
9108;SDS011;4590;51.462;6.692;2022-12-07T18:36:20;6.10;;;3.60;;
9108;SDS011;4590;51.462;6.692;2022-12-07T18:38:46;8.05;;;4.20;;
9108;SDS011;4590;51.462;6.692;2022-12-07T18:41:12;5.90;;;3.70;;
9108;SDS011;4590;51.462;6.692;2022-12-07T18:43:39;6.20;;;4.20;;
9108;SDS011;4590;51.462;6.692;2022-12-07T18:46:09;6.15;;;4.35;;
9108;SDS011;4590;51.462;6.692;2022-12-07T18:48:38;7.88;;;4.50;;
9108;SDS011;4590;51.462;6.692;2022-12-07T18:51:06;6.25;;;4.43;;
9108;SDS011;4590;51.462;6.692;2022-12-07T18:53:34;4.93;;;3.95;;
9108;SDS011;4590;51.462;6.692;2022-12-07T18:56:00;7.45;;;4.80;;
9108;SDS011;4590;51.462;6.692;2022-12-07T18:58:52;8.32;;;4.88;;
9108;SDS011;4590;51.462;6.692;2022-12-07T19:01:40;6.43;;;4.63;;
9108;SDS011;4590;51.462;6.692;2022-12-07T19:04:06;6.53;;;4.88;;
9108;SDS011;4590;51.462;6.692;2022-12-07T19:06:32;9.65;;;5.25;;
9108;SDS011;4590;51.462;6.692;2022-12-07T19:08:58;9.90;;;5.15;;
9108;SDS011;4590;51.462;6.692;2022-12-07T19:11:25;7.00;;;5.10;;
9108;SDS011;4590;51.462;6.692;2022-12-07T19:14:11;6.72;;;4.65;;
9108;SDS011;4590;51.462;6.692;2022-12-07T19:16:37;6.80;;;4.82;;
9108;SDS011;4590;51.462;6.692;2022-12-07T19:19:03;7.35;;;5.10;;
9108;SDS011;4590;51.462;6.692;2022-12-07T19:21:28;7.10;;;5.43;;
9108;SDS011;4590;51.462;6.692;2022-12-07T19:23:54;6.93;;;5.20;;
9108;SDS011;4590;51.462;6.692;2022-12-07T19:26:19;6.67;;;4.87;;
9108;SDS011;4590;51.462;6.692;2022-12-07T19:28:45;7.57;;;5.22;;
9108;SDS011;4590;51.462;6.692;2022-12-07T19:31:11;9.33;;;5.47;;
9108;SDS011;4590;51.462;6.692;2022-12-07T19:33:36;7.43;;;4.73;;
9108;SDS011;4590;51.462;6.692;2022-12-07T19:36:02;9.73;;;5.85;;
9108;SDS011;4590;51.462;6.692;2022-12-07T19:38:29;6.75;;;4.90;;
9108;SDS011;4590;51.462;6.692;2022-12-07T19:41:02;7.35;;;5.40;;
9108;SDS011;4590;51.462;6.692;2022-12-07T19:43:32;8.85;;;5.55;;
9108;SDS011;4590;51.462;6.692;2022-12-07T19:46:05;6.85;;;5.10;;
9108;SDS011;4590;51.462;6.692;2022-12-07T19:48:30;9.52;;;5.80;;
9108;SDS011;4590;51.462;6.692;2022-12-07T19:51:00;8.07;;;5.70;;
9108;SDS011;4590;51.462;6.692;2022-12-07T19:53:30;9.80;;;5.68;;
9108;SDS011;4590;51.462;6.692;2022-12-07T19:55:57;9.43;;;6.30;;
9108;SDS011;4590;51.462;6.692;2022-12-07T19:58:22;10.35;;;6.28;;
9108;SDS011;4590;51.462;6.692;2022-12-07T20:00:48;8.67;;;6.03;;
9108;SDS011;4590;51.462;6.692;2022-12-07T20:03:13;11.83;;;6.87;;
9108;SDS011;4590;51.462;6.692;2022-12-07T20:05:38;12.27;;;7.77;;
9108;SDS011;4590;51.462;6.692;2022-12-07T20:08:04;12.37;;;8.00;;
9108;SDS011;4590;51.462;6.692;2022-12-07T20:10:30;10.20;;;6.23;;
9108;SDS011;4590;51.462;6.692;2022-12-07T20:12:58;10.48;;;6.55;;
9108;SDS011;4590;51.462;6.692;2022-12-07T20:15:42;10.20;;;6.05;;
9108;SDS011;4590;51.462;6.692;2022-12-07T20:18:09;12.30;;;6.77;;
9108;SDS011;4590;51.462;6.692;2022-12-07T20:20:34;8.30;;;5.70;;
9108;SDS011;4590;51.462;6.692;2022-12-07T20:22:59;10.13;;;6.70;;
9108;SDS011;4590;51.462;6.692;2022-12-07T20:25:24;10.70;;;7.67;;
9108;SDS011;4590;51.462;6.692;2022-12-07T20:27:50;8.90;;;6.07;;
9108;SDS011;4590;51.462;6.692;2022-12-07T20:30:15;9.00;;;6.00;;
9108;SDS011;4590;51.462;6.692;2022-12-07T20:32:42;11.25;;;6.75;;
9108;SDS011;4590;51.462;6.692;2022-12-07T20:35:07;11.70;;;6.43;;
9108;SDS011;4590;51.462;6.692;2022-12-07T20:37:32;9.73;;;7.10;;
9108;SDS011;4590;51.462;6.692;2022-12-07T20:39:58;8.07;;;5.93;;
9108;SDS011;4590;51.462;6.692;2022-12-07T20:42:24;11.40;;;6.15;;
9108;SDS011;4590;51.462;6.692;2022-12-07T20:45:02;11.35;;;6.65;;
9108;SDS011;4590;51.462;6.692;2022-12-07T20:47:30;11.48;;;6.65;;
9108;SDS011;4590;51.462;6.692;2022-12-07T20:49:57;11.00;;;6.63;;
9108;SDS011;4590;51.462;6.692;2022-12-07T20:52:22;12.07;;;7.13;;
9108;SDS011;4590;51.462;6.692;2022-12-07T20:54:47;9.70;;;7.50;;
9108;SDS011;4590;51.462;6.692;2022-12-07T20:57:13;11.63;;;6.93;;
9108;SDS011;4590;51.462;6.692;2022-12-07T20:59:38;10.20;;;7.20;;
9108;SDS011;4590;51.462;6.692;2022-12-07T21:02:03;12.40;;;7.70;;
9108;SDS011;4590;51.462;6.692;2022-12-07T21:04:28;10.53;;;6.93;;
9108;SDS011;4590;51.462;6.692;2022-12-07T21:06:54;11.33;;;6.93;;
9108;SDS011;4590;51.462;6.692;2022-12-07T21:09:19;11.77;;;6.93;;
9108;SDS011;4590;51.462;6.692;2022-12-07T21:11:50;10.68;;;7.60;;
9108;SDS011;4590;51.462;6.692;2022-12-07T21:14:17;9.17;;;6.90;;
9108;SDS011;4590;51.462;6.692;2022-12-07T21:16:42;13.63;;;8.00;;
9108;SDS011;4590;51.462;6.692;2022-12-07T21:19:08;12.13;;;7.70;;
9108;SDS011;4590;51.462;6.692;2022-12-07T21:21:34;13.55;;;7.30;;
9108;SDS011;4590;51.462;6.692;2022-12-07T21:24:00;10.80;;;7.20;;
9108;SDS011;4590;51.462;6.692;2022-12-07T21:26:27;9.18;;;7.28;;
9108;SDS011;4590;51.462;6.692;2022-12-07T21:28:53;12.18;;;7.88;;
9108;SDS011;4590;51.462;6.692;2022-12-07T21:31:19;12.43;;;7.85;;
9108;SDS011;4590;51.462;6.692;2022-12-07T21:33:45;10.00;;;6.70;;
9108;SDS011;4590;51.462;6.692;2022-12-07T21:36:15;9.88;;;7.28;;
9108;SDS011;4590;51.462;6.692;2022-12-07T21:38:43;12.52;;;7.82;;
9108;SDS011;4590;51.462;6.692;2022-12-07T21:41:09;11.17;;;7.50;;
9108;SDS011;4590;51.462;6.692;2022-12-07T21:43:39;12.13;;;7.38;;
9108;SDS011;4590;51.462;6.692;2022-12-07T21:46:04;10.07;;;6.97;;
9108;SDS011;4590;51.462;6.692;2022-12-07T21:48:29;11.30;;;7.33;;
9108;SDS011;4590;51.462;6.692;2022-12-07T21:50:56;13.23;;;7.27;;
9108;SDS011;4590;51.462;6.692;2022-12-07T21:53:28;11.07;;;7.05;;
9108;SDS011;4590;51.462;6.692;2022-12-07T21:55:53;10.63;;;7.23;;
9108;SDS011;4590;51.462;6.692;2022-12-07T21:58:18;11.70;;;6.80;;